KACY/ACY METAR and TAF weather

Enter ICAO airport designator
Station Type Date Time Source
KACY METAR 2020/07/07 08:54 UTC NOAA

KACY 070854Z 00000KT 10SM CLR 19/18 A3008 RMK AO2 SLP185 T01940178 56004


Station Type Date Time Source
KACY Decoded METAR 2020/07/07 08:54 UTC NOAA

ATLANTIC CITY INTERNATIONAL, NJ, United States (KACY) 39-28N 74-35W 35M
Jul 07, 2020 - 04:54 AM EDT / 2020.07.07 0854 UTC
Wind: Calm:0
Visibility: 10 mile(s):0
Sky conditions: clear
Temperature: 66.9 F (19.4 C)
Dew Point: 64.0 F (17.8 C)
Relative Humidity: 90%
Pressure (altimeter): 30.08 in. Hg (1018 hPa)
Pressure tendency: 0.01 inches (0.4 hPa) lower than three hours ago
ob: KACY 070854Z 00000KT 10SM CLR 19/18 A3008 RMK AO2 SLP185 T01940178 56004
cycle: 9

Station Type Date Time Source
KACY TAF 2020/07/07 08:36 UTC NOAA

TAF
AMD KACY 070829Z 0708/0806 17009KT P6SM BKN100
FM071000 VRB03KT 5SM BR SCT010
FM071400 VRB04KT P6SM BKN050
FM071800 17009KT P6SM SCT080

Example: see airport list